Time;durP1;ratioP1;P1;durP2;ratioP2;P2;SDS_P1;SDS_P2;PMS_P1;PMS_P2;Temp;Humidity;BMP_temperature;BMP_pressure;BME280_temperature;BME280_humidity;BME280_pressure;Samples;Min_cycle;Max_cycle;Signal;HPM_P1;HPM_P2
2021/01/15 00:00:13;;;;;;;14.67;5.57;;;;;;;-0.45;100.00;101726.13;5025111;28;20029;-68
2021/01/15 00:02:38;;;;;;;18.90;7.10;;;;;;;-0.48;100.00;101731.06;5021383;28;20095;-68
2021/01/15 00:05:04;;;;;;;19.47;6.67;;;;;;;-0.57;100.00;101725.34;5026673;28;20025;-68
2021/01/15 00:07:30;;;;;;;21.47;7.37;;;;;;;-0.69;100.00;101726.34;5027175;28;20099;-68
2021/01/15 00:09:56;;;;;;;22.03;7.83;;;;;;;-0.82;100.00;101728.94;5027150;28;20779;-68
2021/01/15 00:12:21;;;;;;;20.33;7.57;;;;;;;-0.90;100.00;101725.88;5028305;28;20030;-67
2021/01/15 00:14:47;;;;;;;16.97;6.73;;;;;;;-0.91;100.00;101734.38;5021141;28;20288;-68
2021/01/15 00:17:12;;;;;;;20.73;7.43;;;;;;;-0.85;100.00;101736.41;5020838;28;20033;-67
2021/01/15 00:19:38;;;;;;;19.40;6.57;;;;;;;-0.80;100.00;101732.50;5026397;28;20048;-68
2021/01/15 00:22:03;;;;;;;20.53;6.70;;;;;;;-0.76;100.00;101729.31;5019702;28;20451;-68
2021/01/15 00:24:28;;;;;;;20.33;7.13;;;;;;;-0.70;100.00;101724.56;5020494;28;20036;-68
2021/01/15 00:26:54;;;;;;;17.23;6.57;;;;;;;-0.70;100.00;101724.56;5026638;28;20904;-67
2021/01/15 00:29:19;;;;;;;22.60;7.97;;;;;;;-0.71;100.00;101725.38;5025232;28;20029;-68
2021/01/15 00:31:46;;;;;;;24.13;7.67;;;;;;;-0.73;100.00;101734.63;5022048;28;20025;-67
2021/01/15 00:34:14;;;;;;;18.73;7.13;;;;;;;-0.80;100.00;101732.50;5030076;28;20095;-68
2021/01/15 00:36:41;;;;;;;21.03;8.03;;;;;;;-0.85;100.00;101735.53;5021983;28;20346;-67
2021/01/15 00:39:08;;;;;;;20.13;6.83;;;;;;;-0.90;100.00;101737.81;5024186;28;20366;-68
2021/01/15 00:41:35;;;;;;;27.63;7.27;;;;;;;-0.86;100.00;101737.22;5028698;28;20269;-68
2021/01/15 00:44:02;;;;;;;21.77;7.97;;;;;;;-0.85;100.00;101731.28;5022986;28;20357;-68
2021/01/15 00:46:31;;;;;;;22.93;8.03;;;;;;;-0.83;100.00;101732.31;5025764;28;20647;-68
2021/01/15 00:48:58;;;;;;;25.90;8.00;;;;;;;-0.80;100.00;101740.19;5024981;28;20272;-67
2021/01/15 00:51:24;;;;;;;24.13;8.60;;;;;;;-0.72;100.00;101728.72;5024460;28;20284;-69
2021/01/15 00:53:49;;;;;;;21.40;7.80;;;;;;;-0.69;100.00;101736.63;5028201;28;20313;-67
2021/01/15 00:56:18;;;;;;;25.53;8.23;;;;;;;-0.61;100.00;101734.53;5028147;28;20041;-67
2021/01/15 00:58:48;;;;;;;21.53;7.87;;;;;;;-0.58;100.00;101733.84;5030210;28;20072;-68
2021/01/15 01:01:15;;;;;;;22.87;8.40;;;;;;;-0.53;100.00;101732.44;5025286;28;20271;-67
2021/01/15 01:03:41;;;;;;;20.97;7.87;;;;;;;-0.49;100.00;101729.25;5019954;28;20351;-67
2021/01/15 01:06:17;;;;;;;18.80;7.87;;;;;;;-0.50;100.00;101736.09;5021774;28;20291;-68
2021/01/15 01:08:44;;;;;;;22.60;8.10;;;;;;;-0.51;100.00;101736.00;5025644;28;20284;-68
2021/01/15 01:11:20;;;;;;;25.23;7.97;;;;;;;-0.52;100.00;101739.34;5023669;28;20285;-67
2021/01/15 01:13:50;;;;;;;18.93;6.50;;;;;;;-0.52;100.00;101747.06;5024254;28;20279;-67
2021/01/15 01:16:17;;;;;;;18.67;7.13;;;;;;;-0.60;100.00;101744.91;5023756;28;20379;-69
2021/01/15 01:18:44;;;;;;;23.47;7.50;;;;;;;-0.72;100.00;101744.16;5027786;28;20302;-68
2021/01/15 01:21:10;;;;;;;19.73;7.37;;;;;;;-0.91;100.00;101744.63;5024821;28;20328;-68
2021/01/15 01:23:36;;;;;;;23.63;7.70;;;;;;;-1.10;100.00;101756.16;5018491;28;20472;-68
2021/01/15 01:26:03;;;;;;;23.90;7.30;;;;;;;-1.27;100.00;101753.41;5024603;28;20272;-68
2021/01/15 01:28:28;;;;;;;17.27;6.60;;;;;;;-1.43;100.00;101754.84;5022270;28;20504;-68
2021/01/15 01:30:53;;;;;;;20.67;7.53;;;;;;;-1.58;100.00;101754.69;5024373;28;20268;-68
2021/01/15 01:33:19;;;;;;;22.97;6.97;;;;;;;-1.63;100.00;101756.06;5024420;28;20087;-68
2021/01/15 01:35:44;;;;;;;20.87;7.37;;;;;;;-1.69;100.00;101760.81;5022469;28;20034;-68
2021/01/15 01:38:10;;;;;;;23.10;7.77;;;;;;;-1.84;100.00;101756.38;5022986;28;20042;-68
2021/01/15 01:40:35;;;;;;;22.87;7.33;;;;;;;-1.88;100.00;101758.66;5019703;28;20045;-69
2021/01/15 01:43:01;;;;;;;26.70;8.00;;;;;;;-1.88;100.00;101753.53;5025011;28;20124;-68
2021/01/15 01:45:26;;;;;;;29.53;8.90;;;;;;;-1.96;100.00;101754.66;5025206;28;20028;-67
2021/01/15 01:47:54;;;;;;;30.70;8.50;;;;;;;-2.11;100.00;101760.53;5027431;28;20467;-67
2021/01/15 01:50:21;;;;;;;26.57;8.10;;;;;;;-2.25;100.00;101765.47;5017252;28;20126;-68
2021/01/15 01:52:46;;;;;;;21.13;6.77;;;;;;;-2.30;100.00;101761.69;5017395;28;20287;-68
2021/01/15 01:55:13;;;;;;;24.67;8.40;;;;;;;-2.38;100.00;101759.50;5021615;28;20289;-67
2021/01/15 01:57:39;;;;;;;33.43;8.17;;;;;;;-2.39;100.00;101772.19;5024049;28;20056;-69
2021/01/15 02:00:06;;;;;;;32.13;8.80;;;;;;;-2.37;100.00;101771.50;5027242;28;20279;-67
2021/01/15 02:02:32;;;;;;;32.37;8.63;;;;;;;-2.34;100.00;101769.94;5018522;28;20029;-68
2021/01/15 02:04:57;;;;;;;29.93;9.53;;;;;;;-2.36;100.00;101772.41;5022706;28;20500;-67
2021/01/15 02:07:22;;;;;;;35.77;8.80;;;;;;;-2.47;100.00;101771.63;5026866;28;20049;-67
2021/01/15 02:10:03;;;;;;;29.90;8.23;;;;;;;-2.49;100.00;101775.78;5018509;28;20033;-70
2021/01/15 02:12:28;;;;;;;32.37;8.37;;;;;;;-2.45;100.00;101772.63;5020438;28;20048;-68
2021/01/15 02:15:41;;;;;;;39.77;9.43;;;;;;;-2.40;100.00;101783.22;5022296;28;20663;-69
2021/01/15 02:18:10;;;;;;;40.90;8.43;;;;;;;-2.45;100.00;101775.19;5016393;28;20116;-67
2021/01/15 02:20:48;;;;;;;38.90;9.23;;;;;;;-2.30;100.00;101774.50;5018094;28;20033;-69
2021/01/15 02:23:34;;;;;;;38.87;8.23;;;;;;;-2.33;100.00;101779.41;5027805;28;20319;-69
2021/01/15 02:26:05;;;;;;;26.47;8.13;;;;;;;-2.46;100.00;101785.34;5021417;28;20345;-67
2021/01/15 02:28:52;;;;;;;35.70;8.63;;;;;;;-2.39;100.00;101783.31;5027072;28;20283;-68
2021/01/15 02:31:23;;;;;;;34.37;8.53;;;;;;;-2.43;100.00;101790.66;5023688;28;20276;-67
2021/01/15 02:34:33;;;;;;;35.27;8.63;;;;;;;-2.63;100.00;101796.94;5018634;28;20303;-68
2021/01/15 02:37:03;;;;;;;31.17;8.00;;;;;;;-2.49;100.00;101796.25;5020728;28;20300;-69
2021/01/15 02:39:50;;;;;;;32.37;8.27;;;;;;;-2.66;100.00;101796.72;5024376;28;20640;-68
2021/01/15 02:42:17;;;;;;;39.50;8.97;;;;;;;-2.73;100.00;101789.38;5026660;28;20268;-67
2021/01/15 02:44:48;;;;;;;33.07;8.43;;;;;;;-2.85;100.00;101788.50;5022519;28;20276;-68
2021/01/15 02:47:24;;;;;;;31.83;8.50;;;;;;;-2.99;100.00;101790.94;5021308;28;20282;-69
2021/01/15 02:49:51;;;;;;;33.50;7.53;;;;;;;-3.00;100.00;101793.38;5024861;28;20280;-67
2021/01/15 02:52:18;;;;;;;33.40;8.50;;;;;;;-3.10;100.00;101794.38;5024446;28;20291;-69
2021/01/15 02:54:43;;;;;;;36.70;8.47;;;;;;;-3.10;100.00;101796.94;5024001;28;20280;-67
2021/01/15 02:57:08;;;;;;;35.13;8.73;;;;;;;-3.03;100.00;101793.13;5017744;28;20339;-68
2021/01/15 02:59:34;;;;;;;37.67;9.33;;;;;;;-2.99;100.00;101796.06;5024880;28;20025;-68
2021/01/15 03:02:11;;;;;;;32.93;8.70;;;;;;;-3.03;100.00;101799.19;5023163;28;20043;-68
2021/01/15 03:04:40;;;;;;;35.10;9.03;;;;;;;-3.02;100.00;101795.84;5018320;28;20407;-67
2021/01/15 03:07:10;;;;;;;37.93;7.80;;;;;;;-2.76;100.00;101800.28;5023716;28;20894;-67
2021/01/15 03:09:41;;;;;;;49.10;9.13;;;;;;;-2.87;100.00;101796.06;5019479;28;20282;-67
2021/01/15 03:12:07;;;;;;;32.50;9.53;;;;;;;-2.89;100.00;101801.84;5023164;28;20280;-67
2021/01/15 03:14:36;;;;;;;38.77;9.50;;;;;;;-2.92;100.00;101802.50;5020057;28;20288;-67
2021/01/15 03:17:04;;;;;;;34.60;8.17;;;;;;;-2.86;100.00;101807.19;5017365;28;20368;-67
2021/01/15 03:19:31;;;;;;;42.93;8.37;;;;;;;-2.89;100.00;101802.75;5023373;28;20366;-67
2021/01/15 03:21:57;;;;;;;33.60;8.43;;;;;;;-3.02;100.00;101808.63;5022129;28;20295;-67
2021/01/15 03:24:27;;;;;;;34.77;8.57;;;;;;;-3.04;100.00;101807.59;5022703;28;20272;-67
2021/01/15 03:26:53;;;;;;;42.87;11.10;;;;;;;-3.00;100.00;101814.75;5024532;28;20049;-66
2021/01/15 03:29:19;;;;;;;35.33;9.40;;;;;;;-2.82;100.00;101811.72;5027109;28;20283;-65
2021/01/15 03:31:44;;;;;;;42.17;9.87;;;;;;;-2.70;100.00;101820.31;5028760;28;20648;-66
2021/01/15 03:34:10;;;;;;;36.87;9.30;;;;;;;-2.84;100.00;101821.88;5020539;28;20410;-69
2021/01/15 03:36:35;;;;;;;42.67;10.40;;;;;;;-2.76;100.00;101815.66;5026645;28;20033;-69
2021/01/15 03:39:02;;;;;;;36.93;10.43;;;;;;;-2.65;100.00;101818.97;5024563;28;20515;-71
2021/01/15 03:41:28;;;;;;;39.43;9.47;;;;;;;-2.44;100.00;101825.63;5020821;28;20527;-69
2021/01/15 03:43:53;;;;;;;47.13;10.10;;;;;;;-2.29;100.00;101824.97;5029579;28;20279;-69
2021/01/15 03:46:18;;;;;;;50.07;11.33;;;;;;;-2.24;100.00;101823.59;5023398;28;20156;-70
2021/01/15 03:48:47;;;;;;;52.10;10.93;;;;;;;-2.15;100.00;101831.94;5026668;28;20040;-69
2021/01/15 03:51:12;;;;;;;55.67;10.17;;;;;;;-2.05;100.00;101830.94;5026545;28;20615;-69
2021/01/15 03:53:38;;;;;;;47.73;10.93;;;;;;;-2.00;100.00;101835.59;5023443;28;20285;-69
2021/01/15 03:56:03;;;;;;;60.13;11.23;;;;;;;-1.99;100.00;101831.34;5021225;28;20469;-69
2021/01/15 03:58:29;;;;;;;56.97;11.57;;;;;;;-1.99;100.00;101837.34;5030643;28;20037;-71
2021/01/15 04:00:54;;;;;;;46.97;10.70;;;;;;;-1.98;100.00;101831.44;5028254;28;20524;-70
2021/01/15 04:03:20;;;;;;;51.73;11.30;;;;;;;-2.02;100.00;101837.16;5026266;28;20025;-69
2021/01/15 04:05:45;;;;;;;54.20;10.77;;;;;;;-1.97;100.00;101834.91;5028737;28;20155;-69
2021/01/15 04:08:11;;;;;;;49.33;10.50;;;;;;;-2.01;100.00;101830.34;5025349;28;20036;-68
2021/01/15 04:10:36;;;;;;;52.23;11.20;;;;;;;-2.09;100.00;101840.06;5026599;28;20432;-69
2021/01/15 04:13:02;;;;;;;61.80;12.17;;;;;;;-2.18;100.00;101844.50;5024370;28;20163;-69
2021/01/15 04:15:27;;;;;;;53.17;10.97;;;;;;;-2.24;100.00;101846.66;5025724;28;20434;-70
2021/01/15 04:17:52;;;;;;;49.27;10.20;;;;;;;-2.22;100.00;101842.53;5024366;28;20040;-66
2021/01/15 04:20:18;;;;;;;49.27;10.00;;;;;;;-2.22;100.00;101842.53;5022481;28;20036;-67
2021/01/15 04:22:46;;;;;;;51.43;10.53;;;;;;;-2.28;100.00;101848.13;5022617;28;20056;-66
2021/01/15 04:25:13;;;;;;;47.37;10.97;;;;;;;-2.23;100.00;101851.88;5028022;28;20473;-69
2021/01/15 04:27:40;;;;;;;47.63;11.20;;;;;;;-2.23;100.00;101851.88;5028569;28;20271;-69
2021/01/15 04:30:07;;;;;;;49.27;9.87;;;;;;;-2.16;100.00;101851.56;5027307;28;20755;-69
2021/01/15 04:32:33;;;;;;;66.43;11.53;;;;;;;-2.01;100.00;101854.31;5018970;28;20291;-69
2021/01/15 04:35:03;;;;;;;56.40;11.33;;;;;;;-1.92;100.00;101857.53;5027898;28;20295;-69
2021/01/15 04:37:28;;;;;;;52.57;10.50;;;;;;;-1.79;100.00;101862.72;5024171;28;20122;-70
2021/01/15 04:39:54;;;;;;;58.77;11.80;;;;;;;-1.66;100.00;101868.69;5024053;28;20753;-70
2021/01/15 04:42:20;;;;;;;56.57;11.73;;;;;;;-1.60;100.00;101864.88;5027839;28;20546;-70
2021/01/15 04:44:47;;;;;;;54.47;11.43;;;;;;;-1.52;100.00;101870.53;5021369;28;20513;-68
2021/01/15 04:47:13;;;;;;;58.33;11.63;;;;;;;-1.44;100.00;101871.06;5027427;28;20284;-70
2021/01/15 04:49:39;;;;;;;57.30;11.77;;;;;;;-1.34;100.00;101866.63;5023656;28;20283;-67
2021/01/15 04:52:13;;;;;;;58.83;11.70;;;;;;;-1.19;100.00;101879.66;5027101;28;20028;-68
2021/01/15 04:54:46;;;;;;;59.20;11.87;;;;;;;-1.12;100.00;101868.09;5025216;28;20029;-67
2021/01/15 04:57:12;;;;;;;68.00;12.40;;;;;;;-1.06;100.00;101871.97;5026738;28;20280;-67
2021/01/15 04:59:45;;;;;;;57.37;10.90;;;;;;;-1.01;100.00;101874.84;5023658;28;20346;-67
2021/01/15 05:02:14;;;;;;;64.17;12.60;;;;;;;-0.96;100.00;101871.81;5021815;28;20393;-67
2021/01/15 05:04:40;;;;;;;58.27;11.80;;;;;;;-0.84;100.00;101878.56;5020631;28;20268;-68
2021/01/15 05:07:07;;;;;;;63.30;12.77;;;;;;;-0.72;100.00;101874.22;5030415;28;20282;-67
2021/01/15 05:09:44;;;;;;;62.87;12.10;;;;;;;-0.63;100.00;101885.97;5023200;28;20651;-68
2021/01/15 05:12:17;;;;;;;49.13;11.70;;;;;;;-0.54;100.00;101892.50;5022333;28;20334;-68
2021/01/15 05:14:49;;;;;;;68.40;12.40;;;;;;;-0.49;100.00;101893.69;5018043;28;20296;-68
2021/01/15 05:17:16;;;;;;;52.83;11.77;;;;;;;-0.48;100.00;101896.38;5020846;28;20280;-68
2021/01/15 05:19:43;;;;;;;54.07;11.27;;;;;;;-0.44;100.00;101882.03;5024504;28;20318;-67
2021/01/15 05:22:10;;;;;;;64.13;11.23;;;;;;;-0.39;100.00;101898.63;5021561;28;20326;-68
2021/01/15 05:24:37;;;;;;;52.33;12.13;;;;;;;-0.35;100.00;101898.06;5022676;28;20288;-67
2021/01/15 05:30:11;;;;;;;56.63;10.83;;;;;;;-0.27;100.00;101902.00;5018858;28;20639;-68
2021/01/15 05:32:37;;;;;;;52.63;12.70;;;;;;;-0.23;100.00;101900.53;5019387;28;20368;-69
2021/01/15 05:35:03;;;;;;;56.87;11.90;;;;;;;-0.24;100.00;101897.06;5026768;28;20795;-67
2021/01/15 05:37:29;;;;;;;53.63;12.30;;;;;;;-0.22;100.00;101900.63;5019997;28;20041;-67
2021/01/15 05:39:54;;;;;;;48.50;10.83;;;;;;;-0.18;100.00;101901.69;5025152;28;20283;-69
2021/01/15 05:42:19;;;;;;;54.37;11.73;;;;;;;-0.19;100.00;101908.53;5026393;28;20034;-68
2021/01/15 05:44:45;;;;;;;47.83;10.33;;;;;;;-0.19;100.00;101902.50;5020628;28;20033;-69
2021/01/15 05:47:10;;;;;;;42.80;10.97;;;;;;;-0.16;100.00;101908.72;5022604;28;20529;-68
2021/01/15 05:49:36;;;;;;;35.73;9.67;;;;;;;-0.14;100.00;101894.28;5017249;28;20033;-67
2021/01/15 05:52:07;;;;;;;39.90;9.77;;;;;;;-0.15;100.00;101902.78;5024256;28;20045;-68
2021/01/15 05:54:33;;;;;;;45.50;11.20;;;;;;;-0.15;100.00;101907.91;5020513;28;20032;-68
2021/01/15 05:56:59;;;;;;;36.67;8.53;;;;;;;-0.15;100.00;101907.91;5025745;28;20689;-69
2021/01/15 05:59:26;;;;;;;34.17;9.37;;;;;;;-0.12;100.00;101908.13;5022185;28;20662;-67
2021/01/15 06:01:53;;;;;;;39.63;11.10;;;;;;;-0.13;100.00;101911.47;5021178;28;20288;-69
2021/01/15 06:04:32;;;;;;;38.87;10.27;;;;;;;-0.14;100.00;101909.69;5017271;28;20272;-68
2021/01/15 06:07:09;;;;;;;37.40;10.40;;;;;;;-0.15;100.00;101913.06;5027343;28;20362;-68
2021/01/15 06:09:43;;;;;;;30.17;9.00;;;;;;;-0.12;100.00;101915.84;5025243;28;20280;-69
2021/01/15 06:12:09;;;;;;;31.10;8.87;;;;;;;-0.11;100.00;101922.75;5024787;28;20272;-68
2021/01/15 06:14:48;;;;;;;29.77;9.43;;;;;;;-0.11;100.00;101925.34;5024521;28;20291;-68
2021/01/15 06:17:15;;;;;;;30.20;9.27;;;;;;;-0.15;100.00;101915.63;5027422;28;20363;-68
2021/01/15 06:19:49;;;;;;;28.63;9.70;;;;;;;-0.15;100.00;101920.78;5027921;28;20284;-68
2021/01/15 06:22:35;;;;;;;35.90;9.43;;;;;;;-0.11;100.00;101920.19;5026132;28;20283;-69
2021/01/15 06:25:15;;;;;;;25.93;9.07;;;;;;;-0.09;100.00;101916.03;5030155;28;20260;-68
2021/01/15 06:27:42;;;;;;;25.47;8.73;;;;;;;-0.10;100.00;101921.97;5016431;28;20328;-67
2021/01/15 06:30:15;;;;;;;28.10;9.33;;;;;;;-0.12;100.00;101912.34;5020810;28;20805;-68
2021/01/15 06:32:43;;;;;;;26.27;8.60;;;;;;;-0.12;100.00;101918.41;5028508;28;20287;-68
2021/01/15 06:35:23;;;;;;;29.80;8.73;;;;;;;-0.11;100.00;101925.34;5026880;28;20284;-68
2021/01/15 06:38:00;;;;;;;25.83;8.97;;;;;;;-0.08;100.00;101928.09;5020020;28;20283;-68
2021/01/15 06:40:34;;;;;;;25.70;8.80;;;;;;;-0.07;100.00;101928.97;5020111;28;21029;-69
2021/01/15 06:43:03;;;;;;;24.33;8.17;;;;;;;-0.08;100.00;101927.22;5026955;28;20276;-68
2021/01/15 06:45:37;;;;;;;29.97;9.90;;;;;;;-0.07;100.00;101937.59;5020629;28;20338;-68
2021/01/15 06:48:10;;;;;;;28.30;8.63;;;;;;;-0.05;100.00;101936.00;5016298;28;20798;-68
2021/01/15 06:50:37;;;;;;;;;;;;;;;-0.05;100.00;101935.09;5024389;28;20354;-67
2021/01/15 06:53:17;;;;;;;22.13;7.93;;;;;;;-0.10;100.00;101932.25;5029041;28;19920;-69
2021/01/15 06:55:47;;;;;;;26.77;8.53;;;;;;;-0.08;100.00;101945.19;5027305;28;20490;-68
2021/01/15 06:58:35;;;;;;;25.70;8.73;;;;;;;-0.09;100.00;101939.16;5027224;28;20299;-67
2021/01/15 07:01:32;;;;;;;25.50;8.53;;;;;;;-0.10;100.00;101939.97;5029824;28;20398;-68
2021/01/15 07:04:29;;;;;;;25.87;8.27;;;;;;;-0.12;100.00;101948.34;5028991;28;20338;-69
2021/01/15 07:07:07;;;;;;;22.27;8.07;;;;;;;-0.11;100.00;101947.59;5029535;28;20287;-68
2021/01/15 07:09:34;;;;;;;32.57;9.40;;;;;;;-0.10;100.00;101955.38;5023846;28;20354;-67
2021/01/15 07:12:04;;;;;;;24.63;7.80;;;;;;;-0.11;100.00;101956.19;5029183;28;20650;-68
2021/01/15 07:14:44;;;;;;;31.07;8.73;;;;;;;-0.10;100.00;101952.81;5029750;28;20288;-68
2021/01/15 07:17:36;;;;;;;26.47;8.47;;;;;;;-0.09;100.00;101953.72;5026636;28;20307;-68
2021/01/15 07:20:10;;;;;;;27.20;9.33;;;;;;;-0.09;100.00;101949.47;5024575;28;20280;-68
2021/01/15 07:22:47;;;;;;;26.57;9.57;;;;;;;-0.10;100.00;101957.97;5022856;28;20283;-67
2021/01/15 07:25:13;;;;;;;28.00;8.63;;;;;;;-0.09;100.00;101957.16;5029393;28;20287;-67
2021/01/15 07:27:40;;;;;;;28.57;9.47;;;;;;;-0.09;100.00;101958.84;5026595;28;20296;-68
2021/01/15 07:30:27;;;;;;;28.90;9.40;;;;;;;-0.09;100.00;101961.41;5029177;28;20343;-67
2021/01/15 07:32:58;;;;;;;26.33;8.97;;;;;;;-0.08;100.00;101966.66;5023481;28;20759;-69
2021/01/15 07:35:26;;;;;;;29.03;10.23;;;;;;;-0.08;100.00;101973.47;5030187;28;20695;-68
2021/01/15 07:38:24;;;;;;;31.27;9.70;;;;;;;-0.10;100.00;101962.22;5023836;28;20280;-69
2021/01/15 07:40:50;;;;;;;27.77;10.20;;;;;;;-0.06;100.00;101979.59;5007240;28;20832;-68
2021/01/15 07:43:34;;;;;;;29.17;9.83;;;;;;;-0.05;100.00;101972.00;5030388;28;20271;-69
2021/01/15 07:46:03;;;;;;;29.03;9.33;;;;;;;-0.06;100.00;101977.94;5031644;28;20408;-68
2021/01/15 07:48:28;;;;;;;28.03;9.63;;;;;;;-0.07;100.00;101970.13;5028136;28;20286;-67
2021/01/15 07:50:55;;;;;;;27.27;9.27;;;;;;;-0.08;100.00;101982.09;5021668;28;20276;-69
2021/01/15 07:53:26;;;;;;;29.67;9.20;;;;;;;-0.10;100.00;101972.50;5030083;28;20476;-68
2021/01/15 07:56:00;;;;;;;30.67;11.07;;;;;;;-0.11;100.00;101971.59;5029453;28;20288;-68
2021/01/15 07:58:47;;;;;;;29.57;9.30;;;;;;;-0.13;100.00;101973.16;5031374;28;20338;-67
2021/01/15 08:01:18;;;;;;;28.57;9.87;;;;;;;-0.11;100.00;101963.00;5025807;28;20762;-68
2021/01/15 08:03:52;;;;;;;27.50;9.50;;;;;;;-0.13;100.00;101973.16;5027407;28;20651;-68
2021/01/15 08:06:18;;;;;;;28.63;9.33;;;;;;;-0.15;100.00;101974.75;5015647;28;20298;-67
2021/01/15 08:09:06;;;;;;;29.63;9.27;;;;;;;-0.11;100.00;101975.88;5025059;28;20368;-69
2021/01/15 08:11:36;;;;;;;26.63;8.97;;;;;;;-0.10;100.00;101981.09;5024048;28;20268;-68
2021/01/15 08:14:14;;;;;;;27.87;8.40;;;;;;;-0.12;100.00;101986.91;5030447;28;20343;-68
2021/01/15 08:16:44;;;;;;;27.73;9.40;;;;;;;-0.12;100.00;101995.53;5031916;28;20276;-68
2021/01/15 08:19:11;;;;;;;27.00;9.07;;;;;;;-0.06;100.00;102000.19;5023842;28;20290;-67
2021/01/15 08:21:37;;;;;;;32.27;10.80;;;;;;;-0.05;100.00;102000.28;5018442;28;20269;-67
2021/01/15 08:24:04;;;;;;;29.27;10.37;;;;;;;-0.03;100.00;102006.41;5022616;28;20272;-69
2021/01/15 08:26:43;;;;;;;30.10;10.03;;;;;;;0.00;100.00;102010.88;5030311;28;20280;-68
2021/01/15 08:29:09;;;;;;;31.03;10.57;;;;;;;-0.01;100.00;102012.53;5026204;28;20295;-67
2021/01/15 08:31:34;;;;;;;31.83;10.20;;;;;;;0.01;100.00;102016.91;5029329;28;20272;-69
2021/01/15 08:34:21;;;;;;;28.07;10.00;;;;;;;0.01;100.00;102022.06;5045928;28;20493;-68
2021/01/15 08:36:50;;;;;;;30.73;10.37;;;;;;;0.02;100.00;102029.84;5020883;28;20032;-69
2021/01/15 08:39:15;;;;;;;28.83;10.13;;;;;;;0.04;100.00;102029.97;5028369;28;20276;-69
2021/01/15 08:41:41;;;;;;;26.60;10.53;;;;;;;0.04;100.00;102027.38;5023838;28;20642;-69
2021/01/15 08:44:08;;;;;;;33.70;10.93;;;;;;;0.06;100.00;102036.09;5017462;28;20029;-70
2021/01/15 08:46:37;;;;;;;25.40;9.17;;;;;;;0.08;100.00;102037.06;5025717;28;20099;-69
2021/01/15 08:49:07;;;;;;;30.80;9.57;;;;;;;0.08;100.00;102039.63;5012658;28;20674;-69
2021/01/15 08:51:35;;;;;;;31.87;10.50;;;;;;;0.11;100.00;102037.25;5026425;28;20751;-70
2021/01/15 08:54:04;;;;;;;29.43;10.00;;;;;;;0.12;100.00;102041.59;5029292;28;20276;-69
2021/01/15 08:56:44;;;;;;;29.17;10.73;;;;;;;0.12;100.00;102041.59;5012612;28;20271;-71
2021/01/15 08:59:14;;;;;;;29.00;10.30;;;;;;;0.16;100.00;102048.75;5029261;28;20356;-69
2021/01/15 09:01:41;;;;;;;34.13;10.63;;;;;;;0.16;100.00;102065.06;5000839;28;20272;-69
2021/01/15 09:04:09;;;;;;;30.20;10.73;;;;;;;0.18;100.00;102062.59;5009257;28;20629;-68
2021/01/15 09:06:36;;;;;;;31.77;10.80;;;;;;;0.22;100.00;102069.72;5026129;28;20265;-69
2021/01/15 09:09:10;;;;;;;26.50;9.77;;;;;;;0.24;100.00;102068.13;5026566;28;20276;-70
2021/01/15 09:11:40;;;;;;;29.53;9.90;;;;;;;0.27;100.00;102073.50;5025763;28;20303;-70
2021/01/15 09:14:12;;;;;;;30.70;10.13;;;;;;;0.29;100.00;102071.91;5025773;28;20355;-70
2021/01/15 09:16:38;;;;;;;30.80;10.20;;;;;;;0.32;100.00;102071.22;5030470;28;20272;-71
2021/01/15 09:19:07;;;;;;;29.23;10.70;;;;;;;0.30;100.00;102076.25;5017227;28;20111;-69
2021/01/15 09:21:32;;;;;;;27.60;10.33;;;;;;;0.31;100.00;102078.03;5027035;28;20790;-69
2021/01/15 09:23:58;;;;;;;30.27;11.60;;;;;;;0.29;100.00;102082.19;5024167;28;20280;-69
2021/01/15 09:26:24;;;;;;;26.83;10.13;;;;;;;0.33;100.00;102089.31;5024757;28;20067;-69
2021/01/15 09:28:50;;;;;;;27.07;10.20;;;;;;;0.36;100.00;102086.03;5028640;28;20028;-68
2021/01/15 09:31:18;;;;;;;27.70;10.67;;;;;;;0.37;100.00;102085.28;5024441;28;20126;-71
2021/01/15 09:33:49;;;;;;;26.87;9.93;;;;;;;0.40;100.00;102086.34;5009367;28;20292;-70
2021/01/15 09:36:23;;;;;;;27.73;9.83;;;;;;;0.45;100.00;102089.22;5020271;28;20661;-69
2021/01/15 09:38:50;;;;;;;27.17;10.27;;;;;;;0.47;100.00;102083.38;5029486;28;20298;-70
2021/01/15 09:41:15;;;;;;;29.73;10.40;;;;;;;0.50;100.00;102088.75;5014843;28;20299;-69
2021/01/15 09:43:42;;;;;;;30.53;9.97;;;;;;;0.49;100.00;102097.25;5027045;28;20276;-69
2021/01/15 09:46:08;;;;;;;28.53;9.93;;;;;;;0.54;100.00;102101.00;5009461;28;20549;-69
2021/01/15 09:48:34;;;;;;;29.47;10.60;;;;;;;0.65;100.00;102095.66;5012049;28;20268;-70
2021/01/15 09:51:00;;;;;;;32.27;9.97;;;;;;;0.72;100.00;102100.38;5018613;28;20406;-70
2021/01/15 09:53:26;;;;;;;27.10;9.77;;;;;;;0.76;100.00;102103.28;5028636;28;20026;-70
2021/01/15 09:55:51;;;;;;;27.00;9.30;;;;;;;0.77;100.00;102094.75;5010639;28;20287;-70
2021/01/15 09:58:19;;;;;;;27.83;10.03;;;;;;;0.89;100.00;102107.50;5028964;28;20021;-69
2021/01/15 10:00:44;;;;;;;27.53;9.67;;;;;;;0.90;100.00;102101.56;5029588;28;20040;-70
2021/01/15 10:03:10;;;;;;;23.80;8.43;;;;;;;0.90;100.00;102105.81;5026268;28;20276;-70
2021/01/15 10:05:35;;;;;;;21.50;8.57;;;;;;;0.88;100.00;102108.31;5028303;28;20575;-69
2021/01/15 10:08:01;;;;;;;24.13;8.27;;;;;;;0.79;100.00;102110.28;5027191;28;20034;-70
2021/01/15 10:10:28;;;;;;;21.73;8.13;;;;;;;0.75;100.00;102111.78;5023998;28;20133;-69
2021/01/15 10:12:53;;;;;;;23.43;7.83;;;;;;;0.71;100.00;102104.63;5023317;28;20029;-69
2021/01/15 10:15:19;;;;;;;24.33;9.77;;;;;;;0.71;100.00;102114.03;5028831;28;20288;-69
2021/01/15 10:17:46;;;;;;;20.20;7.73;;;;;;;0.65;100.00;102111.09;5025933;28;20040;-70
2021/01/15 10:20:12;;;;;;;22.13;7.80;;;;;;;0.58;100.00;102113.25;5029578;28;20047;-70
2021/01/15 10:22:38;;;;;;;19.27;7.17;;;;;;;0.54;100.00;102119.00;5027008;28;20276;-70
2021/01/15 10:25:04;;;;;;;19.03;7.27;;;;;;;0.47;100.00;102111.69;5010355;28;21021;-70
2021/01/15 10:27:30;;;;;;;20.97;7.53;;;;;;;0.45;100.00;102113.25;5027477;28;20032;-69
2021/01/15 10:29:56;;;;;;;22.97;8.53;;;;;;;0.41;100.00;102115.56;5028531;28;20291;-69
2021/01/15 10:32:22;;;;;;;21.27;7.57;;;;;;;0.34;100.00;102116.81;5028261;28;20029;-69
2021/01/15 10:34:47;;;;;;;21.23;7.77;;;;;;;0.29;100.00;102110.50;5028168;28;20033;-69
2021/01/15 10:37:13;;;;;;;23.33;7.80;;;;;;;0.23;100.00;102108.38;5022583;28;20026;-69
2021/01/15 10:39:38;;;;;;;22.07;8.10;;;;;;;0.18;100.00;102114.03;5027633;28;20029;-70
2021/01/15 10:42:04;;;;;;;30.33;8.73;;;;;;;0.15;100.00;102106.13;5027810;28;20029;-70
2021/01/15 10:44:30;;;;;;;25.60;8.90;;;;;;;0.13;100.00;102105.13;5020894;28;20128;-69
2021/01/15 10:46:55;;;;;;;21.27;7.90;;;;;;;0.11;100.00;102107.59;5028819;28;20044;-69
2021/01/15 10:49:23;;;;;;;21.70;7.73;;;;;;;0.07;100.00;102109.88;5026442;28;20060;-69
2021/01/15 10:51:51;;;;;;;24.23;8.47;;;;;;;0.06;100.00;102113.22;5026577;28;20112;-70
2021/01/15 10:54:17;;;;;;;23.20;8.57;;;;;;;0.03;100.00;102115.59;5028783;28;20274;-71
2021/01/15 10:56:45;;;;;;;21.47;7.40;;;;;;;-0.01;100.00;102119.63;5028619;28;20763;-70
2021/01/15 10:59:12;;;;;;;23.07;8.23;;;;;;;-0.02;100.00;102116.16;5028355;28;20045;-70
2021/01/15 11:01:40;;;;;;;23.43;8.17;;;;;;;-0.01;100.00;102125.66;5026105;28;20338;-69
2021/01/15 11:04:07;;;;;;;21.33;8.53;;;;;;;0.01;100.00;102122.31;5025416;28;20271;-70
2021/01/15 11:06:37;;;;;;;23.83;7.77;;;;;;;0.02;100.00;102116.41;5028858;28;20279;-69
2021/01/15 11:09:04;;;;;;;18.23;7.37;;;;;;;0.00;100.00;102124.00;5027365;28;20272;-70
2021/01/15 11:11:30;;;;;;;16.57;6.17;;;;;;;-0.05;100.00;102118.53;5028254;28;20300;-70
2021/01/15 11:13:56;;;;;;;17.47;6.83;;;;;;;-0.05;100.00;102123.69;5024702;28;20313;-70
2021/01/15 11:16:24;;;;;;;17.17;6.17;;;;;;;-0.03;100.00;102129.81;5015506;28;20034;-70
2021/01/15 11:18:49;;;;;;;17.23;6.80;;;;;;;-0.06;100.00;102127.03;5025359;28;20271;-70
2021/01/15 11:21:23;;;;;;;20.13;6.93;;;;;;;-0.08;100.00;102120.91;5022220;28;20273;-69